sensor_id;sensor_type;location;lat;lon;timestamp;temperature;humidity
52859;DHT22;38721;53.098;6.596;2022-10-20T00:00:12;6.80;99.90
52859;DHT22;38721;53.098;6.596;2022-10-20T00:02:37;6.90;99.90
52859;DHT22;38721;53.098;6.596;2022-10-20T00:05:03;6.80;99.90
52859;DHT22;38721;53.098;6.596;2022-10-20T00:07:29;6.80;99.90
52859;DHT22;38721;53.098;6.596;2022-10-20T00:09:55;6.90;99.90
52859;DHT22;38721;53.098;6.596;2022-10-20T00:12:20;6.90;99.90
52859;DHT22;38721;53.098;6.596;2022-10-20T00:14:46;6.80;99.90
52859;DHT22;38721;53.098;6.596;2022-10-20T00:17:12;6.80;99.90
52859;DHT22;38721;53.098;6.596;2022-10-20T00:19:40;6.80;99.90
52859;DHT22;38721;53.098;6.596;2022-10-20T00:22:05;6.70;99.90
52859;DHT22;38721;53.098;6.596;2022-10-20T00:24:31;6.70;99.90
52859;DHT22;38721;53.098;6.596;2022-10-20T00:26:57;6.80;99.90
52859;DHT22;38721;53.098;6.596;2022-10-20T00:29:22;6.80;99.90
52859;DHT22;38721;53.098;6.596;2022-10-20T00:31:48;6.70;99.90
52859;DHT22;38721;53.098;6.596;2022-10-20T00:34:14;6.70;99.90
52859;DHT22;38721;53.098;6.596;2022-10-20T00:36:39;6.60;99.90
52859;DHT22;38721;53.098;6.596;2022-10-20T00:39:05;6.60;99.90
52859;DHT22;38721;53.098;6.596;2022-10-20T00:41:34;6.70;99.90
52859;DHT22;38721;53.098;6.596;2022-10-20T00:44:43;6.60;99.90
52859;DHT22;38721;53.098;6.596;2022-10-20T00:46:46;6.60;99.90
52859;DHT22;38721;53.098;6.596;2022-10-20T00:49:16;6.60;99.90
52859;DHT22;38721;53.098;6.596;2022-10-20T00:51:45;6.60;99.90
52859;DHT22;38721;53.098;6.596;2022-10-20T00:54:15;6.60;99.90
52859;DHT22;38721;53.098;6.596;2022-10-20T00:56:43;6.50;99.90
52859;DHT22;38721;53.098;6.596;2022-10-20T00:59:12;6.60;99.90
52859;DHT22;38721;53.098;6.596;2022-10-20T01:01:39;6.50;99.90
52859;DHT22;38721;53.098;6.596;2022-10-20T01:04:05;6.50;99.90
52859;DHT22;38721;53.098;6.596;2022-10-20T01:06:31;6.50;99.90
52859;DHT22;38721;53.098;6.596;2022-10-20T01:09:00;6.60;99.90
52859;DHT22;38721;53.098;6.596;2022-10-20T01:22:55;6.30;99.90
52859;DHT22;38721;53.098;6.596;2022-10-20T01:25:49;6.40;99.90
52859;DHT22;38721;53.098;6.596;2022-10-20T01:28:40;6.30;99.90
52859;DHT22;38721;53.098;6.596;2022-10-20T01:31:29;6.40;99.90
52859;DHT22;38721;53.098;6.596;2022-10-20T01:34:07;6.40;99.90
52859;DHT22;38721;53.098;6.596;2022-10-20T01:36:56;6.30;99.90
52859;DHT22;38721;53.098;6.596;2022-10-20T01:42:17;6.40;99.90
52859;DHT22;38721;53.098;6.596;2022-10-20T01:44:45;6.40;99.90
52859;DHT22;38721;53.098;6.596;2022-10-20T01:47:13;6.40;99.90
52859;DHT22;38721;53.098;6.596;2022-10-20T01:49:42;6.30;99.90
52859;DHT22;38721;53.098;6.596;2022-10-20T01:52:10;6.20;99.90
52859;DHT22;38721;53.098;6.596;2022-10-20T01:54:37;6.30;99.90
52859;DHT22;38721;53.098;6.596;2022-10-20T02:00:11;6.30;99.90
52859;DHT22;38721;53.098;6.596;2022-10-20T02:05:31;6.30;99.90
52859;DHT22;38721;53.098;6.596;2022-10-20T02:08:06;6.30;99.90
52859;DHT22;38721;53.098;6.596;2022-10-20T02:10:44;6.20;99.90
52859;DHT22;38721;53.098;6.596;2022-10-20T02:13:11;6.30;99.90
52859;DHT22;38721;53.098;6.596;2022-10-20T02:15:39;6.20;99.90
52859;DHT22;38721;53.098;6.596;2022-10-20T02:18:08;6.10;99.90
52859;DHT22;38721;53.098;6.596;2022-10-20T02:20:36;6.10;99.90
52859;DHT22;38721;53.098;6.596;2022-10-20T02:23:03;6.10;99.90
52859;DHT22;38721;53.098;6.596;2022-10-20T02:25:30;6.20;99.90
52859;DHT22;38721;53.098;6.596;2022-10-20T02:27:57;6.20;99.90
52859;DHT22;38721;53.098;6.596;2022-10-20T02:30:24;6.00;99.90
52859;DHT22;38721;53.098;6.596;2022-10-20T02:32:51;6.10;99.90
52859;DHT22;38721;53.098;6.596;2022-10-20T02:35:29;6.20;99.90
52859;DHT22;38721;53.098;6.596;2022-10-20T02:37:55;6.20;99.90
52859;DHT22;38721;53.098;6.596;2022-10-20T02:40:21;6.00;99.90
52859;DHT22;38721;53.098;6.596;2022-10-20T02:42:47;6.10;99.90
52859;DHT22;38721;53.098;6.596;2022-10-20T02:45:13;6.00;99.90
52859;DHT22;38721;53.098;6.596;2022-10-20T02:47:38;6.10;99.90
52859;DHT22;38721;53.098;6.596;2022-10-20T02:50:05;6.10;99.90
52859;DHT22;38721;53.098;6.596;2022-10-20T02:52:31;6.10;99.90
52859;DHT22;38721;53.098;6.596;2022-10-20T02:54:57;6.10;99.90
52859;DHT22;38721;53.098;6.596;2022-10-20T02:57:22;6.10;99.90
52859;DHT22;38721;53.098;6.596;2022-10-20T02:59:48;5.90;99.90
52859;DHT22;38721;53.098;6.596;2022-10-20T03:02:14;5.90;99.90
52859;DHT22;38721;53.098;6.596;2022-10-20T03:04:39;6.00;99.90
52859;DHT22;38721;53.098;6.596;2022-10-20T03:07:05;5.90;99.90
52859;DHT22;38721;53.098;6.596;2022-10-20T03:09:31;5.90;99.90
52859;DHT22;38721;53.098;6.596;2022-10-20T03:11:57;6.00;99.90
52859;DHT22;38721;53.098;6.596;2022-10-20T03:14:23;5.80;99.90
52859;DHT22;38721;53.098;6.596;2022-10-20T03:16:49;5.90;99.90
52859;DHT22;38721;53.098;6.596;2022-10-20T03:19:14;6.00;99.90
52859;DHT22;38721;53.098;6.596;2022-10-20T03:21:40;5.80;99.90
52859;DHT22;38721;53.098;6.596;2022-10-20T03:24:05;6.00;99.90
52859;DHT22;38721;53.098;6.596;2022-10-20T03:26:31;5.80;99.90
52859;DHT22;38721;53.098;6.596;2022-10-20T03:28:57;6.00;99.90
52859;DHT22;38721;53.098;6.596;2022-10-20T03:31:23;5.90;99.90
52859;DHT22;38721;53.098;6.596;2022-10-20T03:33:48;6.10;99.90
52859;DHT22;38721;53.098;6.596;2022-10-20T03:36:14;6.00;99.90
52859;DHT22;38721;53.098;6.596;2022-10-20T03:38:40;6.00;99.90
52859;DHT22;38721;53.098;6.596;2022-10-20T03:41:08;5.80;99.90
52859;DHT22;38721;53.098;6.596;2022-10-20T03:43:33;5.90;99.90
52859;DHT22;38721;53.098;6.596;2022-10-20T03:46:01;6.00;99.90
52859;DHT22;38721;53.098;6.596;2022-10-20T03:48:28;6.10;99.90
52859;DHT22;38721;53.098;6.596;2022-10-20T03:50:53;5.90;99.90
52859;DHT22;38721;53.098;6.596;2022-10-20T03:53:19;6.00;99.90
52859;DHT22;38721;53.098;6.596;2022-10-20T03:55:45;5.90;99.90
52859;DHT22;38721;53.098;6.596;2022-10-20T03:58:10;5.90;99.90
52859;DHT22;38721;53.098;6.596;2022-10-20T04:00:36;5.80;99.90
52859;DHT22;38721;53.098;6.596;2022-10-20T04:03:02;5.80;99.90
52859;DHT22;38721;53.098;6.596;2022-10-20T04:05:28;5.90;99.90
52859;DHT22;38721;53.098;6.596;2022-10-20T04:07:53;5.90;99.90
52859;DHT22;38721;53.098;6.596;2022-10-20T04:10:19;5.90;99.90
52859;DHT22;38721;53.098;6.596;2022-10-20T04:12:44;6.00;99.90
52859;DHT22;38721;53.098;6.596;2022-10-20T04:15:10;6.00;99.90
52859;DHT22;38721;53.098;6.596;2022-10-20T04:17:36;6.10;99.90
52859;DHT22;38721;53.098;6.596;2022-10-20T04:20:04;5.90;99.90
52859;DHT22;38721;53.098;6.596;2022-10-20T04:22:30;5.90;99.90
52859;DHT22;38721;53.098;6.596;2022-10-20T04:24:55;6.00;99.90
52859;DHT22;38721;53.098;6.596;2022-10-20T04:27:21;6.10;99.90
52859;DHT22;38721;53.098;6.596;2022-10-20T04:29:47;6.00;99.90
52859;DHT22;38721;53.098;6.596;2022-10-20T04:32:13;6.00;99.90
52859;DHT22;38721;53.098;6.596;2022-10-20T04:34:39;6.00;99.90
52859;DHT22;38721;53.098;6.596;2022-10-20T04:37:04;5.90;99.90
52859;DHT22;38721;53.098;6.596;2022-10-20T04:39:30;6.10;99.90
52859;DHT22;38721;53.098;6.596;2022-10-20T04:41:56;6.00;99.90
52859;DHT22;38721;53.098;6.596;2022-10-20T04:44:22;6.10;99.90
52859;DHT22;38721;53.098;6.596;2022-10-20T04:46:47;6.00;99.90
52859;DHT22;38721;53.098;6.596;2022-10-20T04:49:13;6.10;99.90
52859;DHT22;38721;53.098;6.596;2022-10-20T04:51:39;6.00;99.90
52859;DHT22;38721;53.098;6.596;2022-10-20T04:54:05;6.00;99.90
52859;DHT22;38721;53.098;6.596;2022-10-20T04:56:31;6.10;99.90
52859;DHT22;38721;53.098;6.596;2022-10-20T04:58:57;6.20;99.90
52859;DHT22;38721;53.098;6.596;2022-10-20T05:01:27;6.10;99.90
52859;DHT22;38721;53.098;6.596;2022-10-20T05:03:54;6.10;99.90
52859;DHT22;38721;53.098;6.596;2022-10-20T05:06:23;6.20;99.90
52859;DHT22;38721;53.098;6.596;2022-10-20T05:08:50;6.20;99.90
52859;DHT22;38721;53.098;6.596;2022-10-20T05:11:17;6.20;99.90
52859;DHT22;38721;53.098;6.596;2022-10-20T05:13:43;6.20;99.90
52859;DHT22;38721;53.098;6.596;2022-10-20T05:16:10;6.20;99.90
52859;DHT22;38721;53.098;6.596;2022-10-20T05:18:36;6.20;99.90
52859;DHT22;38721;53.098;6.596;2022-10-20T05:21:11;6.10;99.90
52859;DHT22;38721;53.098;6.596;2022-10-20T05:23:38;6.10;99.90
52859;DHT22;38721;53.098;6.596;2022-10-20T05:26:06;6.10;99.90
52859;DHT22;38721;53.098;6.596;2022-10-20T05:28:32;6.00;99.90
52859;DHT22;38721;53.098;6.596;2022-10-20T05:31:03;6.10;99.90
52859;DHT22;38721;53.098;6.596;2022-10-20T05:33:29;6.10;99.90
52859;DHT22;38721;53.098;6.596;2022-10-20T05:35:55;6.00;99.90
52859;DHT22;38721;53.098;6.596;2022-10-20T05:38:21;6.00;99.90
52859;DHT22;38721;53.098;6.596;2022-10-20T05:40:46;6.00;99.90
52859;DHT22;38721;53.098;6.596;2022-10-20T05:43:12;6.00;99.90
52859;DHT22;38721;53.098;6.596;2022-10-20T05:45:38;6.10;99.90
52859;DHT22;38721;53.098;6.596;2022-10-20T05:48:04;6.00;99.90
52859;DHT22;38721;53.098;6.596;2022-10-20T05:50:30;6.00;99.90
52859;DHT22;38721;53.098;6.596;2022-10-20T05:52:55;6.00;99.90
52859;DHT22;38721;53.098;6.596;2022-10-20T05:55:22;6.00;99.90
52859;DHT22;38721;53.098;6.596;2022-10-20T05:57:49;6.10;99.90
52859;DHT22;38721;53.098;6.596;2022-10-20T06:00:15;6.00;99.90
52859;DHT22;38721;53.098;6.596;2022-10-20T06:02:41;6.10;99.90
52859;DHT22;38721;53.098;6.596;2022-10-20T06:05:09;6.10;99.90
52859;DHT22;38721;53.098;6.596;2022-10-20T06:07:35;6.20;99.90
52859;DHT22;38721;53.098;6.596;2022-10-20T06:10:02;6.00;99.90
52859;DHT22;38721;53.098;6.596;2022-10-20T06:12:31;6.10;99.90
52859;DHT22;38721;53.098;6.596;2022-10-20T06:14:57;6.20;99.90
52859;DHT22;38721;53.098;6.596;2022-10-20T06:17:22;6.20;99.90
52859;DHT22;38721;53.098;6.596;2022-10-20T06:19:48;6.20;99.90
52859;DHT22;38721;53.098;6.596;2022-10-20T06:22:14;6.00;99.90
52859;DHT22;38721;53.098;6.596;2022-10-20T06:24:39;6.20;99.90
52859;DHT22;38721;53.098;6.596;2022-10-20T06:27:05;6.10;99.90
52859;DHT22;38721;53.098;6.596;2022-10-20T06:29:31;6.20;99.90
52859;DHT22;38721;53.098;6.596;2022-10-20T06:31:56;6.10;99.90
52859;DHT22;38721;53.098;6.596;2022-10-20T06:34:23;6.20;99.90
52859;DHT22;38721;53.098;6.596;2022-10-20T06:36:50;6.30;99.90
52859;DHT22;38721;53.098;6.596;2022-10-20T06:39:18;6.20;99.90
52859;DHT22;38721;53.098;6.596;2022-10-20T06:41:52;6.40;99.90
52859;DHT22;38721;53.098;6.596;2022-10-20T06:44:20;6.20;99.90
52859;DHT22;38721;53.098;6.596;2022-10-20T06:46:46;6.40;99.90
52859;DHT22;38721;53.098;6.596;2022-10-20T06:49:12;6.40;99.90
52859;DHT22;38721;53.098;6.596;2022-10-20T06:51:39;6.40;99.90
52859;DHT22;38721;53.098;6.596;2022-10-20T06:54:05;6.40;99.90
52859;DHT22;38721;53.098;6.596;2022-10-20T06:56:33;6.50;99.90
52859;DHT22;38721;53.098;6.596;2022-10-20T06:58:59;6.60;99.90
52859;DHT22;38721;53.098;6.596;2022-10-20T07:01:33;6.50;99.90
52859;DHT22;38721;53.098;6.596;2022-10-20T07:04:02;6.60;99.90
52859;DHT22;38721;53.098;6.596;2022-10-20T07:06:30;6.60;99.90
52859;DHT22;38721;53.098;6.596;2022-10-20T07:08:58;6.70;99.90
52859;DHT22;38721;53.098;6.596;2022-10-20T07:11:27;6.70;99.90
52859;DHT22;38721;53.098;6.596;2022-10-20T07:13:53;6.80;99.90
52859;DHT22;38721;53.098;6.596;2022-10-20T07:16:22;6.80;99.90
52859;DHT22;38721;53.098;6.596;2022-10-20T07:18:48;6.90;99.90
52859;DHT22;38721;53.098;6.596;2022-10-20T07:21:19;7.00;99.90
52859;DHT22;38721;53.098;6.596;2022-10-20T07:23:45;7.00;99.90
52859;DHT22;38721;53.098;6.596;2022-10-20T07:26:17;7.10;99.90
52859;DHT22;38721;53.098;6.596;2022-10-20T07:28:46;7.10;99.90
52859;DHT22;38721;53.098;6.596;2022-10-20T07:31:20;7.20;99.90
52859;DHT22;38721;53.098;6.596;2022-10-20T07:33:46;7.30;99.90
52859;DHT22;38721;53.098;6.596;2022-10-20T07:36:18;7.30;99.90
52859;DHT22;38721;53.098;6.596;2022-10-20T07:38:44;7.30;99.90
52859;DHT22;38721;53.098;6.596;2022-10-20T07:41:11;7.40;99.90
52859;DHT22;38721;53.098;6.596;2022-10-20T07:43:37;7.40;99.90
52859;DHT22;38721;53.098;6.596;2022-10-20T07:46:07;7.50;99.90
52859;DHT22;38721;53.098;6.596;2022-10-20T07:48:33;7.50;99.90
52859;DHT22;38721;53.098;6.596;2022-10-20T07:53:53;7.70;99.90
52859;DHT22;38721;53.098;6.596;2022-10-20T07:56:20;7.70;99.90
52859;DHT22;38721;53.098;6.596;2022-10-20T07:58:46;7.80;99.90
52859;DHT22;38721;53.098;6.596;2022-10-20T08:01:12;7.80;99.90
52859;DHT22;38721;53.098;6.596;2022-10-20T08:03:41;7.90;99.90
52859;DHT22;38721;53.098;6.596;2022-10-20T08:06:07;7.90;99.90
52859;DHT22;38721;53.098;6.596;2022-10-20T08:08:33;8.00;99.90
52859;DHT22;38721;53.098;6.596;2022-10-20T08:10:59;8.10;99.90
52859;DHT22;38721;53.098;6.596;2022-10-20T08:13:28;8.20;99.90
52859;DHT22;38721;53.098;6.596;2022-10-20T08:15:54;8.30;99.90
52859;DHT22;38721;53.098;6.596;2022-10-20T08:18:20;8.30;99.90
52859;DHT22;38721;53.098;6.596;2022-10-20T08:20:46;8.40;99.90
52859;DHT22;38721;53.098;6.596;2022-10-20T08:23:12;8.40;99.90
52859;DHT22;38721;53.098;6.596;2022-10-20T08:25:38;8.50;99.90
52859;DHT22;38721;53.098;6.596;2022-10-20T08:28:04;8.50;99.90
52859;DHT22;38721;53.098;6.596;2022-10-20T08:30:30;8.60;99.90
52859;DHT22;38721;53.098;6.596;2022-10-20T08:32:56;8.80;99.90
52859;DHT22;38721;53.098;6.596;2022-10-20T08:35:23;8.80;99.90
52859;DHT22;38721;53.098;6.596;2022-10-20T08:37:48;8.90;99.90
52859;DHT22;38721;53.098;6.596;2022-10-20T08:40:18;9.00;99.90
52859;DHT22;38721;53.098;6.596;2022-10-20T08:42:44;9.10;99.90
52859;DHT22;38721;53.098;6.596;2022-10-20T08:45:21;9.20;99.90
52859;DHT22;38721;53.098;6.596;2022-10-20T08:47:51;9.30;99.90
52859;DHT22;38721;53.098;6.596;2022-10-20T08:50:18;9.40;99.90
52859;DHT22;38721;53.098;6.596;2022-10-20T08:52:46;9.40;99.90
52859;DHT22;38721;53.098;6.596;2022-10-20T08:55:25;9.50;99.90
52859;DHT22;38721;53.098;6.596;2022-10-20T08:57:54;9.60;99.90
52859;DHT22;38721;53.098;6.596;2022-10-20T09:00:22;9.60;99.90
52859;DHT22;38721;53.098;6.596;2022-10-20T09:02:49;9.60;99.90
52859;DHT22;38721;53.098;6.596;2022-10-20T09:05:22;9.70;99.90
52859;DHT22;38721;53.098;6.596;2022-10-20T09:07:48;9.80;99.90
52859;DHT22;38721;53.098;6.596;2022-10-20T09:10:31;9.90;99.90
52859;DHT22;38721;53.098;6.596;2022-10-20T09:13:01;10.00;99.90
52859;DHT22;38721;53.098;6.596;2022-10-20T09:15:28;10.10;99.90
52859;DHT22;38721;53.098;6.596;2022-10-20T09:18:02;10.10;99.90
52859;DHT22;38721;53.098;6.596;2022-10-20T09:20:30;10.20;99.90
52859;DHT22;38721;53.098;6.596;2022-10-20T09:22:56;10.10;99.90
52859;DHT22;38721;53.098;6.596;2022-10-20T09:25:25;10.10;99.90
52859;DHT22;38721;53.098;6.596;2022-10-20T09:27:53;10.30;99.90
52859;DHT22;38721;53.098;6.596;2022-10-20T09:30:21;10.40;99.90
52859;DHT22;38721;53.098;6.596;2022-10-20T09:32:48;10.40;99.90
52859;DHT22;38721;53.098;6.596;2022-10-20T09:35:18;10.60;99.90
52859;DHT22;38721;53.098;6.596;2022-10-20T09:37:57;10.60;99.90
52859;DHT22;38721;53.098;6.596;2022-10-20T09:40:24;10.60;99.90
52859;DHT22;38721;53.098;6.596;2022-10-20T09:43:01;10.70;99.90
52859;DHT22;38721;53.098;6.596;2022-10-20T09:45:29;10.80;99.90
52859;DHT22;38721;53.098;6.596;2022-10-20T09:48:20;10.70;99.90
52859;DHT22;38721;53.098;6.596;2022-10-20T09:50:50;10.80;99.90
52859;DHT22;38721;53.098;6.596;2022-10-20T09:53:19;11.00;99.90
52859;DHT22;38721;53.098;6.596;2022-10-20T09:55:46;11.10;99.90
52859;DHT22;38721;53.098;6.596;2022-10-20T09:58:27;11.10;44.50
52859;DHT22;38721;53.098;6.596;2022-10-20T10:01:02;11.20;12.40
52859;DHT22;38721;53.098;6.596;2022-10-20T10:03:28;11.30;1.00
52859;DHT22;38721;53.098;6.596;2022-10-20T10:06:32;11.40;1.00
52859;DHT22;38721;53.098;6.596;2022-10-20T10:09:32;11.50;1.00
52859;DHT22;38721;53.098;6.596;2022-10-20T10:14:47;11.60;99.90
52859;DHT22;38721;53.098;6.596;2022-10-20T10:17:31;11.70;99.90
52859;DHT22;38721;53.098;6.596;2022-10-20T10:19:58;12.00;99.90
52859;DHT22;38721;53.098;6.596;2022-10-20T10:22:25;12.10;99.90
52859;DHT22;38721;53.098;6.596;2022-10-20T10:24:53;11.90;27.10
52859;DHT22;38721;53.098;6.596;2022-10-20T10:29:47;12.10;99.90
52859;DHT22;38721;53.098;6.596;2022-10-20T10:37:04;12.30;1.00
52859;DHT22;38721;53.098;6.596;2022-10-20T10:39:33;12.80;99.90
52859;DHT22;38721;53.098;6.596;2022-10-20T10:42:16;13.10;99.90
52859;DHT22;38721;53.098;6.596;2022-10-20T10:50:47;13.10;12.20
52859;DHT22;38721;53.098;6.596;2022-10-20T10:56:42;13.20;99.90
52859;DHT22;38721;53.098;6.596;2022-10-20T11:15:23;13.30;1.00
52859;DHT22;38721;53.098;6.596;2022-10-20T11:18:09;13.50;4.80
52859;DHT22;38721;53.098;6.596;2022-10-20T11:28:54;13.90;8.70
52859;DHT22;38721;53.098;6.596;2022-10-20T11:31:40;13.90;1.00
52859;DHT22;38721;53.098;6.596;2022-10-20T11:36:48;14.10;1.00
52859;DHT22;38721;53.098;6.596;2022-10-20T11:39:33;14.00;1.00
52859;DHT22;38721;53.098;6.596;2022-10-20T11:42:15;14.00;1.00
52859;DHT22;38721;53.098;6.596;2022-10-20T11:44:45;14.10;99.90
52859;DHT22;38721;53.098;6.596;2022-10-20T11:47:19;13.90;1.00
52859;DHT22;38721;53.098;6.596;2022-10-20T11:49:49;14.20;99.90
52859;DHT22;38721;53.098;6.596;2022-10-20T11:55:16;13.90;99.90
52859;DHT22;38721;53.098;6.596;2022-10-20T11:58:09;14.00;83.80
52859;DHT22;38721;53.098;6.596;2022-10-20T12:03:58;14.10;99.90
52859;DHT22;38721;53.098;6.596;2022-10-20T12:06:49;14.00;99.90
52859;DHT22;38721;53.098;6.596;2022-10-20T12:09:24;13.80;1.00
52859;DHT22;38721;53.098;6.596;2022-10-20T12:12:07;13.80;99.90
52859;DHT22;38721;53.098;6.596;2022-10-20T12:14:40;13.80;99.90
52859;DHT22;38721;53.098;6.596;2022-10-20T12:19:48;13.70;99.90
52859;DHT22;38721;53.098;6.596;2022-10-20T12:27:24;13.50;58.50
52859;DHT22;38721;53.098;6.596;2022-10-20T12:32:50;13.60;99.90
52859;DHT22;38721;53.098;6.596;2022-10-20T12:37:54;13.40;99.90
52859;DHT22;38721;53.098;6.596;2022-10-20T12:40:25;13.40;99.90
52859;DHT22;38721;53.098;6.596;2022-10-20T12:42:54;13.30;99.90
52859;DHT22;38721;53.098;6.596;2022-10-20T12:45:38;13.40;99.90
52859;DHT22;38721;53.098;6.596;2022-10-20T12:48:06;13.40;1.00
52859;DHT22;38721;53.098;6.596;2022-10-20T12:50:41;13.30;1.00
52859;DHT22;38721;53.098;6.596;2022-10-20T12:55:46;13.10;99.90
52859;DHT22;38721;53.098;6.596;2022-10-20T13:03:35;13.10;99.90
52859;DHT22;38721;53.098;6.596;2022-10-20T13:14:16;12.90;99.90
52859;DHT22;38721;53.098;6.596;2022-10-20T13:17:10;12.90;99.90
52859;DHT22;38721;53.098;6.596;2022-10-20T13:19:50;12.90;99.90
52859;DHT22;38721;53.098;6.596;2022-10-20T13:22:34;12.70;99.90
52859;DHT22;38721;53.098;6.596;2022-10-20T13:25:03;12.70;99.90
52859;DHT22;38721;53.098;6.596;2022-10-20T13:27:29;12.80;99.90
52859;DHT22;38721;53.098;6.596;2022-10-20T13:29:55;12.70;99.90
52859;DHT22;38721;53.098;6.596;2022-10-20T13:32:22;12.80;99.90
52859;DHT22;38721;53.098;6.596;2022-10-20T13:35:00;12.80;99.90
52859;DHT22;38721;53.098;6.596;2022-10-20T13:37:44;12.70;99.90
52859;DHT22;38721;53.098;6.596;2022-10-20T13:40:22;12.60;99.90
52859;DHT22;38721;53.098;6.596;2022-10-20T13:46:05;12.60;99.90
52859;DHT22;38721;53.098;6.596;2022-10-20T13:51:46;12.40;99.90
52859;DHT22;38721;53.098;6.596;2022-10-20T13:54:28;12.40;99.90
52859;DHT22;38721;53.098;6.596;2022-10-20T13:56:56;12.50;99.90
52859;DHT22;38721;53.098;6.596;2022-10-20T13:59:24;12.50;99.90
52859;DHT22;38721;53.098;6.596;2022-10-20T14:02:22;12.40;99.90
52859;DHT22;38721;53.098;6.596;2022-10-20T14:04:40;12.50;99.90
52859;DHT22;38721;53.098;6.596;2022-10-20T14:07:10;12.40;99.90
52859;DHT22;38721;53.098;6.596;2022-10-20T14:09:41;12.50;99.90
52859;DHT22;38721;53.098;6.596;2022-10-20T14:12:15;12.30;99.90
52859;DHT22;38721;53.098;6.596;2022-10-20T14:14:44;12.30;99.90
52859;DHT22;38721;53.098;6.596;2022-10-20T14:17:21;12.30;99.90
52859;DHT22;38721;53.098;6.596;2022-10-20T14:19:48;12.30;99.90
52859;DHT22;38721;53.098;6.596;2022-10-20T14:22:20;12.40;99.90
52859;DHT22;38721;53.098;6.596;2022-10-20T14:24:53;12.30;99.90
52859;DHT22;38721;53.098;6.596;2022-10-20T14:27:30;12.30;99.90
52859;DHT22;38721;53.098;6.596;2022-10-20T14:29:57;12.40;99.90
52859;DHT22;38721;53.098;6.596;2022-10-20T14:32:26;12.40;99.90
52859;DHT22;38721;53.098;6.596;2022-10-20T14:34:58;12.30;99.90
52859;DHT22;38721;53.098;6.596;2022-10-20T14:37:34;12.20;99.90
52859;DHT22;38721;53.098;6.596;2022-10-20T14:40:04;12.40;99.90
52859;DHT22;38721;53.098;6.596;2022-10-20T14:42:31;12.40;99.90
52859;DHT22;38721;53.098;6.596;2022-10-20T14:44:59;12.40;99.90
52859;DHT22;38721;53.098;6.596;2022-10-20T14:47:31;12.40;99.90
52859;DHT22;38721;53.098;6.596;2022-10-20T14:49:58;12.60;99.90
52859;DHT22;38721;53.098;6.596;2022-10-20T14:52:28;12.60;99.90
52859;DHT22;38721;53.098;6.596;2022-10-20T14:54:55;12.50;99.90
52859;DHT22;38721;53.098;6.596;2022-10-20T15:00:00;12.50;99.90
52859;DHT22;38721;53.098;6.596;2022-10-20T15:02:37;12.60;99.90
52859;DHT22;38721;53.098;6.596;2022-10-20T15:07:51;12.60;99.90
52859;DHT22;38721;53.098;6.596;2022-10-20T15:10:21;12.50;99.90
52859;DHT22;38721;53.098;6.596;2022-10-20T15:12:48;12.70;99.90
52859;DHT22;38721;53.098;6.596;2022-10-20T15:15:27;12.60;99.90
52859;DHT22;38721;53.098;6.596;2022-10-20T15:20:41;12.70;99.90
52859;DHT22;38721;53.098;6.596;2022-10-20T15:23:12;12.60;99.90
52859;DHT22;38721;53.098;6.596;2022-10-20T15:25:53;12.60;99.90
52859;DHT22;38721;53.098;6.596;2022-10-20T15:28:36;12.70;99.90
52859;DHT22;38721;53.098;6.596;2022-10-20T15:31:05;12.60;99.90
52859;DHT22;38721;53.098;6.596;2022-10-20T15:33:31;12.80;99.90
52859;DHT22;38721;53.098;6.596;2022-10-20T15:35:57;12.80;99.90
52859;DHT22;38721;53.098;6.596;2022-10-20T15:38:24;12.70;99.90
52859;DHT22;38721;53.098;6.596;2022-10-20T15:40:50;12.70;99.90
52859;DHT22;38721;53.098;6.596;2022-10-20T15:43:17;12.80;99.90
52859;DHT22;38721;53.098;6.596;2022-10-20T15:45:46;12.70;99.90
52859;DHT22;38721;53.098;6.596;2022-10-20T15:48:13;12.80;99.90
52859;DHT22;38721;53.098;6.596;2022-10-20T15:50:39;12.80;99.90
52859;DHT22;38721;53.098;6.596;2022-10-20T15:53:05;13.00;99.90
52859;DHT22;38721;53.098;6.596;2022-10-20T15:55:34;12.90;99.90
52859;DHT22;38721;53.098;6.596;2022-10-20T15:58:00;13.10;99.90
52859;DHT22;38721;53.098;6.596;2022-10-20T16:00:27;12.90;99.90
52859;DHT22;38721;53.098;6.596;2022-10-20T16:02:53;13.10;99.90
52859;DHT22;38721;53.098;6.596;2022-10-20T16:05:21;13.10;99.90
52859;DHT22;38721;53.098;6.596;2022-10-20T16:07:51;12.90;99.90
52859;DHT22;38721;53.098;6.596;2022-10-20T16:10:20;13.10;99.90
52859;DHT22;38721;53.098;6.596;2022-10-20T16:12:46;13.10;99.90
52859;DHT22;38721;53.098;6.596;2022-10-20T16:15:12;13.00;99.90
52859;DHT22;38721;53.098;6.596;2022-10-20T16:17:38;13.10;99.90
52859;DHT22;38721;53.098;6.596;2022-10-20T16:20:05;13.00;99.90
52859;DHT22;38721;53.098;6.596;2022-10-20T16:22:32;12.90;99.90
52859;DHT22;38721;53.098;6.596;2022-10-20T16:24:58;13.00;99.90
52859;DHT22;38721;53.098;6.596;2022-10-20T16:27:27;12.90;99.90
52859;DHT22;38721;53.098;6.596;2022-10-20T16:29:53;13.10;99.90
52859;DHT22;38721;53.098;6.596;2022-10-20T16:32:18;13.10;99.90
52859;DHT22;38721;53.098;6.596;2022-10-20T16:34:44;13.20;99.90
52859;DHT22;38721;53.098;6.596;2022-10-20T16:37:10;13.10;99.90
52859;DHT22;38721;53.098;6.596;2022-10-20T16:39:35;13.10;99.90
52859;DHT22;38721;53.098;6.596;2022-10-20T16:42:01;13.20;99.90
52859;DHT22;38721;53.098;6.596;2022-10-20T16:44:30;13.10;99.90
52859;DHT22;38721;53.098;6.596;2022-10-20T16:46:56;13.10;99.90
52859;DHT22;38721;53.098;6.596;2022-10-20T16:49:22;13.10;99.90
52859;DHT22;38721;53.098;6.596;2022-10-20T16:51:49;13.20;99.90
52859;DHT22;38721;53.098;6.596;2022-10-20T16:54:15;13.20;99.90
52859;DHT22;38721;53.098;6.596;2022-10-20T16:56:41;13.20;99.90
52859;DHT22;38721;53.098;6.596;2022-10-20T16:59:07;13.30;99.90
52859;DHT22;38721;53.098;6.596;2022-10-20T17:01:33;13.40;99.90
52859;DHT22;38721;53.098;6.596;2022-10-20T17:03:59;13.30;99.90
52859;DHT22;38721;53.098;6.596;2022-10-20T17:06:25;13.20;99.90
52859;DHT22;38721;53.098;6.596;2022-10-20T17:08:52;13.20;99.90
52859;DHT22;38721;53.098;6.596;2022-10-20T17:11:29;13.30;99.90
52859;DHT22;38721;53.098;6.596;2022-10-20T17:13:55;13.30;99.90
52859;DHT22;38721;53.098;6.596;2022-10-20T17:16:32;13.30;99.90
52859;DHT22;38721;53.098;6.596;2022-10-20T17:19:00;13.20;99.90
52859;DHT22;38721;53.098;6.596;2022-10-20T17:21:27;13.30;99.90
52859;DHT22;38721;53.098;6.596;2022-10-20T17:23:53;13.40;99.90
52859;DHT22;38721;53.098;6.596;2022-10-20T17:26:24;13.20;99.90
52859;DHT22;38721;53.098;6.596;2022-10-20T17:28:55;13.40;99.90
52859;DHT22;38721;53.098;6.596;2022-10-20T17:31:25;13.50;99.90
52859;DHT22;38721;53.098;6.596;2022-10-20T17:33:51;13.50;99.90
52859;DHT22;38721;53.098;6.596;2022-10-20T17:36:17;13.50;99.90
52859;DHT22;38721;53.098;6.596;2022-10-20T17:38:53;13.30;99.90
52859;DHT22;38721;53.098;6.596;2022-10-20T17:41:20;13.40;99.90
52859;DHT22;38721;53.098;6.596;2022-10-20T17:43:46;13.50;99.90
52859;DHT22;38721;53.098;6.596;2022-10-20T17:46:13;13.50;99.90
52859;DHT22;38721;53.098;6.596;2022-10-20T17:48:40;13.50;99.90
52859;DHT22;38721;53.098;6.596;2022-10-20T17:51:14;13.30;99.90